Terminal Aerodrome Forecast
Issued by NWS

Home | Current Version | Previous Version | Text Only | Print | Product List | Glossary On
Versions: 1 2 3 4 5 6 7 8 9 10 11 12 13 14 15 16 17 18 19
000
FTUS42 KJAX 221851 AAA
TAFCRG
TAF AMD
KCRG 221851Z 2219/2318 11015KT P6SM VCSH BKN035 OVC060
     FM230900 12012KT 4SM SHRA SCT010 OVC020
     FM231500 17012KT P6SM VCTS SCT015CB BKN025 PROB30 2315/2318
      VRB15G25KT 3SM TSRA BKN015CB=

USA.gov is the U.S. government's official web portal to all federal, state and local government web resources and services.